OAKB/KBL METAR and TAF weather

Enter ICAO airport designator
Station Type Date Time Source
OAKB METAR 2021/03/07 08:50 UTC NOAA

OAKB 070850Z VRB05KT 9999 SCT025 10/03 Q1018 RMK A3007 BLU BLU


Station Type Date Time Source
OAKB Decoded METAR 2021/03/07 08:50 UTC NOAA

Kabul Airport, Afghanistan (OAKB) 34-38N 069-12E
Mar 07, 2021 - 03:50 AM EST / 2021.03.07 0850 UTC
Wind: Variable at 6 MPH (5 KT):0
Visibility: greater than 7 mile(s):0
Sky conditions: partly cloudy
Temperature: 50 F (10 C)
Dew Point: 37 F (3 C)
Relative Humidity: 61%
Pressure (altimeter): 30.06 in. Hg (1018 hPa)
ob: OAKB 070850Z VRB05KT 9999 SCT025 10/03 Q1018 RMK A3007 BLU BLU
cycle: 9

Station Type Date Time Source
OAKB TAF 2021/03/07 06:05 UTC NOAA

TAF OAKB 070505Z 0706/0806 VRB02KT 5000 BR SCT015 BKN030 OVC040
BECMG 0709/0711 01012KT 8000 VCSH SCT025 SCT040 BKN060
BECMG 0716/0718 VRB02KT 3600 BR SCT030 BKN050
TEMPO 0718/0722 1500
BECMG 0722/0724 5000
TEMPO 0800/0803 1500 BR
BECMG 0804/0806 6000 NSW SCT050

Example: see airport list